Time;durP1;ratioP1;P1;durP2;ratioP2;P2;SDS_P1;SDS_P2;PMS_P1;PMS_P2;Temp;Humidity;BMP_temperature;BMP_pressure;BME280_temperature;BME280_humidity;BME280_pressure;Samples;Min_cycle;Max_cycle;Signal;HPM_P1;HPM_P2
2022/01/09 00:02:04;;;;;;;130.20;69.93;;;;;;;;;;5067375;28;20027;-44
2022/01/09 00:04:30;;;;;;;133.95;73.07;;;;;;;;;;5070939;28;20051;-44
2022/01/09 00:06:56;;;;;;;171.18;85.53;;;;;;;;;;5069925;28;20020;-44
2022/01/09 00:09:22;;;;;;;150.38;77.32;;;;;;;;;;5069686;28;20024;-43
2022/01/09 00:11:48;;;;;;;116.03;63.75;;;;;;;;;;5065521;28;20469;-44
2022/01/09 00:14:15;;;;;;;136.45;76.05;;;;;;;;;;5067585;28;20078;-44
2022/01/09 00:16:41;;;;;;;98.70;58.40;;;;;;;;;;5067748;28;20390;-44
2022/01/09 00:19:07;;;;;;;98.55;57.47;;;;;;;;;;5066525;28;20031;-45
2022/01/09 00:21:33;;;;;;;113.97;62.85;;;;;;;;;;5067178;28;20040;-44
2022/01/09 00:23:59;;;;;;;104.47;57.20;;;;;;;;;;5066770;28;20042;-44
2022/01/09 00:26:25;;;;;;;82.85;49.60;;;;;;;;;;5066765;28;20225;-44
2022/01/09 00:28:51;;;;;;;91.07;48.80;;;;;;;;;;5070349;28;20592;-44
2022/01/09 00:31:17;;;;;;;90.82;49.40;;;;;;;;;;5067158;28;20455;-44
2022/01/09 00:33:44;;;;;;;96.70;52.50;;;;;;;;;;5067531;28;20086;-44
2022/01/09 00:36:10;;;;;;;96.78;52.58;;;;;;;;;;5066715;28;20024;-44
2022/01/09 00:38:36;;;;;;;121.85;68.03;;;;;;;;;;5064593;28;20499;-44
2022/01/09 00:41:02;;;;;;;98.80;54.25;;;;;;;;;;5065486;28;20034;-44
2022/01/09 00:43:28;;;;;;;91.07;51.50;;;;;;;;;;5067496;28;20135;-44
2022/01/09 00:45:54;;;;;;;127.15;69.43;;;;;;;;;;5065602;28;20117;-44
2022/01/09 00:48:20;;;;;;;129.88;68.75;;;;;;;;;;5065501;28;20024;-44
2022/01/09 00:50:47;;;;;;;103.45;57.38;;;;;;;;;;5066203;28;20050;-44
2022/01/09 00:53:13;;;;;;;109.80;57.85;;;;;;;;;;5065712;28;20197;-45
2022/01/09 00:55:39;;;;;;;82.50;45.22;;;;;;;;;;5069373;28;20505;-44
2022/01/09 00:58:05;;;;;;;81.63;43.33;;;;;;;;;;5070888;28;20877;-44
2022/01/09 01:00:31;;;;;;;86.25;48.80;;;;;;;;;;5072054;28;20028;-45
2022/01/09 01:02:58;;;;;;;101.10;50.45;;;;;;;;;;5072107;28;20193;-45
2022/01/09 01:05:31;;;;;;;91.03;49.28;;;;;;;;;;5070394;28;20020;-44
2022/01/09 01:07:57;;;;;;;98.75;51.60;;;;;;;;;;5069762;28;20023;-45
2022/01/09 01:10:23;;;;;;;127.18;69.80;;;;;;;;;;5066479;28;20031;-44
2022/01/09 01:12:52;;;;;;;110.72;60.17;;;;;;;;;;5066065;28;20629;-44
2022/01/09 01:15:20;;;;;;;87.97;48.10;;;;;;;;;;5068575;28;20042;-44
2022/01/09 01:17:46;;;;;;;96.18;51.85;;;;;;;;;;5066230;28;20020;-45
2022/01/09 01:20:13;;;;;;;91.90;47.67;;;;;;;;;;5065747;28;20024;-44
2022/01/09 01:22:40;;;;;;;77.20;43.08;;;;;;;;;;5066086;28;20028;-44
2022/01/09 01:25:07;;;;;;;101.95;52.67;;;;;;;;;;5066569;28;20088;-46
2022/01/09 01:27:33;;;;;;;85.90;44.88;;;;;;;;;;5066564;28;20048;-45
2022/01/09 01:30:00;;;;;;;156.65;77.25;;;;;;;;;;5066031;28;20433;-45
2022/01/09 01:32:27;;;;;;;82.68;44.80;;;;;;;;;;5065617;28;20148;-44
2022/01/09 01:34:53;;;;;;;138.73;62.67;;;;;;;;;;5065372;28;20492;-45
2022/01/09 01:37:19;;;;;;;161.40;65.13;;;;;;;;;;5065398;28;20085;-44
2022/01/09 01:39:45;;;;;;;192.23;79.03;;;;;;;;;;5065322;28;20029;-44
2022/01/09 01:42:11;;;;;;;248.48;99.65;;;;;;;;;;5065326;28;20356;-46
2022/01/09 01:44:42;;;;;;;220.85;82.13;;;;;;;;;;5065363;28;20023;-44
2022/01/09 01:47:08;;;;;;;237.40;96.10;;;;;;;;;;5066523;28;20036;-45
2022/01/09 01:49:34;;;;;;;202.30;78.75;;;;;;;;;;5065395;28;20027;-44
2022/01/09 01:52:00;;;;;;;186.85;71.35;;;;;;;;;;5065363;28;20035;-44
2022/01/09 01:54:27;;;;;;;238.13;93.97;;;;;;;;;;5070857;28;20105;-44
2022/01/09 01:56:54;;;;;;;157.35;61.95;;;;;;;;;;5096030;28;20036;-45
2022/01/09 01:59:22;;;;;;;135.23;63.40;;;;;;;;;;5096021;28;20415;-45
2022/01/09 02:01:48;;;;;;;127.90;61.05;;;;;;;;;;5095976;28;20028;-45
2022/01/09 02:04:14;;;;;;;121.72;58.08;;;;;;;;;;5095896;28;20354;-44
2022/01/09 02:06:41;;;;;;;119.82;57.53;;;;;;;;;;5095169;28;20050;-44
2022/01/09 02:09:07;;;;;;;129.20;56.38;;;;;;;;;;5095910;28;20027;-45
2022/01/09 02:11:34;;;;;;;112.80;51.38;;;;;;;;;;5095661;28;20516;-45
2022/01/09 02:14:00;;;;;;;116.53;53.10;;;;;;;;;;5095828;28;20048;-44
2022/01/09 02:16:28;;;;;;;127.97;57.17;;;;;;;;;;5095669;28;20024;-45
2022/01/09 02:18:54;;;;;;;113.57;51.05;;;;;;;;;;5095619;28;20028;-45
2022/01/09 02:21:22;;;;;;;86.82;42.78;;;;;;;;;;5095666;28;20027;-45
2022/01/09 02:23:49;;;;;;;84.93;39.28;;;;;;;;;;5095709;28;20020;-46
2022/01/09 02:26:24;;;;;;;67.68;33.25;;;;;;;;;;5095797;28;20021;-44
2022/01/09 02:28:51;;;;;;;67.75;33.28;;;;;;;;;;5095308;28;20056;-44
2022/01/09 02:31:19;;;;;;;71.82;34.55;;;;;;;;;;5095504;28;20028;-44
2022/01/09 02:33:45;;;;;;;83.07;40.05;;;;;;;;;;5095416;28;20472;-45
2022/01/09 02:36:11;;;;;;;62.55;31.45;;;;;;;;;;5095577;28;20104;-46
2022/01/09 02:38:38;;;;;;;61.53;30.02;;;;;;;;;;5095242;28;20024;-44
2022/01/09 02:41:04;;;;;;;51.05;26.73;;;;;;;;;;5095510;28;20031;-45
2022/01/09 02:43:30;;;;;;;58.05;30.98;;;;;;;;;;5095322;28;20062;-47
2022/01/09 02:46:17;;;;;;;62.70;32.10;;;;;;;;;;5095142;28;20412;-45
2022/01/09 02:48:44;;;;;;;56.83;28.92;;;;;;;;;;5095244;28;20024;-45
2022/01/09 02:51:16;;;;;;;56.38;29.40;;;;;;;;;;5094989;28;20504;-45
2022/01/09 02:53:44;;;;;;;;;;;;;;;;;;5095366;28;20030;-41
2022/01/09 02:56:11;;;;;;;69.07;32.83;;;;;;;;;;5094923;28;19911;-45
2022/01/09 02:58:37;;;;;;;66.30;31.30;;;;;;;;;;5094960;28;20024;-44
2022/01/09 03:01:05;;;;;;;68.18;33.63;;;;;;;;;;5095046;28;20095;-44
2022/01/09 03:03:31;;;;;;;59.42;31.95;;;;;;;;;;5094968;28;20052;-44
2022/01/09 03:05:57;;;;;;;60.97;31.35;;;;;;;;;;5094888;28;20043;-44
2022/01/09 03:08:23;;;;;;;65.80;31.90;;;;;;;;;;5094813;28;20092;-43
2022/01/09 03:10:50;;;;;;;55.30;29.50;;;;;;;;;;5094580;28;20052;-45
2022/01/09 03:13:16;;;;;;;61.47;31.13;;;;;;;;;;5094577;28;20028;-44
2022/01/09 03:15:42;;;;;;;60.65;31.95;;;;;;;;;;5094552;28;20111;-44
2022/01/09 03:18:08;;;;;;;56.80;31.45;;;;;;;;;;5094701;28;20366;-44
2022/01/09 03:20:34;;;;;;;56.70;31.13;;;;;;;;;;5094511;28;20035;-44
2022/01/09 03:23:00;;;;;;;58.08;30.63;;;;;;;;;;5094611;28;20020;-45
2022/01/09 03:25:29;;;;;;;58.80;32.30;;;;;;;;;;5094365;28;20020;-45
2022/01/09 03:27:58;;;;;;;51.33;28.98;;;;;;;;;;5094199;28;20047;-45
2022/01/09 03:30:25;;;;;;;59.33;33.10;;;;;;;;;;5094207;28;20078;-45
2022/01/09 03:32:52;;;;;;;54.08;31.05;;;;;;;;;;5094389;28;20036;-45
2022/01/09 03:35:20;;;;;;;62.72;34.00;;;;;;;;;;5094202;28;20016;-45
2022/01/09 03:37:47;;;;;;;58.53;31.67;;;;;;;;;;5094169;28;20522;-43
2022/01/09 03:40:15;;;;;;;55.50;31.35;;;;;;;;;;5094140;28;20026;-45
2022/01/09 03:42:41;;;;;;;61.15;33.13;;;;;;;;;;5094084;28;20557;-44
2022/01/09 03:45:08;;;;;;;56.83;32.38;;;;;;;;;;5094042;28;20016;-45
2022/01/09 03:47:38;;;;;;;58.22;32.50;;;;;;;;;;5094336;28;20039;-46
2022/01/09 03:50:05;;;;;;;70.03;35.17;;;;;;;;;;5094147;28;20024;-46
2022/01/09 03:52:33;;;;;;;78.35;38.20;;;;;;;;;;5093949;28;20089;-49
2022/01/09 03:54:59;;;;;;;81.05;38.15;;;;;;;;;;5094270;28;20105;-45
2022/01/09 03:57:25;;;;;;;83.63;37.47;;;;;;;;;;5093640;28;20504;-48
2022/01/09 03:59:51;;;;;;;79.20;37.55;;;;;;;;;;5093999;28;20066;-45
2022/01/09 04:02:20;;;;;;;80.10;36.33;;;;;;;;;;5093933;28;20027;-46
2022/01/09 04:04:46;;;;;;;78.15;37.45;;;;;;;;;;5093762;28;20512;-46
2022/01/09 04:07:12;;;;;;;83.82;38.20;;;;;;;;;;5093901;28;20107;-45
2022/01/09 04:09:43;;;;;;;92.32;40.13;;;;;;;;;;5093780;28;20017;-45
2022/01/09 04:12:18;;;;;;;90.47;40.63;;;;;;;;;;5093643;28;20067;-45
2022/01/09 04:14:50;;;;;;;81.30;37.80;;;;;;;;;;5093759;28;20016;-46
2022/01/09 04:20:24;;;;;;;85.80;37.90;;;;;;;;;;5051215;28;20544;-44
2022/01/09 04:22:53;;;;;;;77.38;37.75;;;;;;;;;;5051175;28;20033;-45
2022/01/09 04:25:20;;;;;;;82.53;36.55;;;;;;;;;;5051057;28;20437;-44
2022/01/09 04:27:51;;;;;;;76.60;34.53;;;;;;;;;;5050402;28;20091;-43
2022/01/09 04:30:18;;;;;;;86.07;36.03;;;;;;;;;;5051205;28;20025;-44
2022/01/09 04:32:44;;;;;;;77.25;35.33;;;;;;;;;;5051088;28;20036;-43
2022/01/09 04:35:10;;;;;;;80.05;36.47;;;;;;;;;;5051046;28;20041;-44
2022/01/09 04:37:37;;;;;;;93.10;40.53;;;;;;;;;;5051149;28;20029;-44
2022/01/09 04:40:09;;;;;;;92.10;37.78;;;;;;;;;;5051065;28;20021;-44
2022/01/09 04:42:43;;;;;;;136.38;43.78;;;;;;;;;;5051121;28;20098;-45
2022/01/09 04:45:09;;;;;;;74.35;32.28;;;;;;;;;;5050925;28;20025;-44
2022/01/09 04:47:36;;;;;;;66.30;30.70;;;;;;;;;;5050907;28;20164;-44
2022/01/09 04:50:08;;;;;;;53.85;24.50;;;;;;;;;;5050916;28;20036;-44
2022/01/09 04:52:38;;;;;;;47.25;25.17;;;;;;;;;;5050741;28;20033;-44
2022/01/09 04:55:04;;;;;;;42.58;24.60;;;;;;;;;;5083307;28;20031;-44
2022/01/09 04:57:35;;;;;;;48.78;25.77;;;;;;;;;;5093145;28;20035;-43
2022/01/09 05:00:01;;;;;;;44.58;24.92;;;;;;;;;;5093273;28;20028;-44
2022/01/09 05:02:27;;;;;;;58.97;26.08;;;;;;;;;;5093260;28;20020;-45
2022/01/09 05:04:54;;;;;;;52.05;28.80;;;;;;;;;;5093028;28;20017;-44
2022/01/09 05:07:22;;;;;;;62.40;32.33;;;;;;;;;;5093001;28;20024;-44
2022/01/09 05:09:50;;;;;;;76.57;37.65;;;;;;;;;;5093144;28;20028;-45
2022/01/09 05:12:16;;;;;;;74.05;36.15;;;;;;;;;;5092977;28;20405;-46
2022/01/09 05:14:43;;;;;;;69.55;33.58;;;;;;;;;;5093148;28;20052;-46
2022/01/09 05:17:11;;;;;;;63.55;31.15;;;;;;;;;;5093219;28;20508;-45
2022/01/09 05:19:38;;;;;;;68.75;34.70;;;;;;;;;;5092959;28;20107;-45
2022/01/09 05:22:08;;;;;;;135.85;38.92;;;;;;;;;;5092866;28;20032;-47
2022/01/09 05:24:35;;;;;;;80.22;32.40;;;;;;;;;;5092773;28;20063;-45
2022/01/09 05:27:01;;;;;;;114.05;38.95;;;;;;;;;;5092952;28;20081;-45
2022/01/09 05:29:27;;;;;;;108.07;37.75;;;;;;;;;;5092778;28;20067;-45
2022/01/09 05:31:53;;;;;;;119.88;41.60;;;;;;;;;;5092682;28;20466;-45
2022/01/09 05:34:19;;;;;;;123.53;44.10;;;;;;;;;;5092843;28;20035;-44
2022/01/09 05:36:50;;;;;;;119.05;42.97;;;;;;;;;;5092902;28;20409;-44
2022/01/09 05:39:16;;;;;;;124.53;44.35;;;;;;;;;;5092727;28;20031;-44
2022/01/09 05:41:43;;;;;;;139.52;48.72;;;;;;;;;;5095967;28;20043;-44
2022/01/09 05:44:09;;;;;;;135.55;50.03;;;;;;;;;;5096677;28;20103;-47
2022/01/09 05:46:35;;;;;;;121.75;42.47;;;;;;;;;;5096429;28;20564;-45
2022/01/09 05:49:01;;;;;;;106.93;41.05;;;;;;;;;;5096716;28;20073;-44
2022/01/09 05:51:29;;;;;;;150.40;48.97;;;;;;;;;;5096387;28;20062;-45
2022/01/09 05:53:56;;;;;;;168.00;53.15;;;;;;;;;;5096373;28;20012;-43
2022/01/09 05:56:22;;;;;;;176.48;58.72;;;;;;;;;;5096130;28;20103;-45
2022/01/09 05:58:48;;;;;;;133.65;49.17;;;;;;;;;;5096183;28;20027;-44
2022/01/09 06:01:14;;;;;;;122.05;44.80;;;;;;;;;;5096159;28;20028;-45
2022/01/09 06:03:40;;;;;;;129.48;42.80;;;;;;;;;;5095912;28;20032;-45
2022/01/09 06:06:07;;;;;;;160.90;43.00;;;;;;;;;;5096056;28;20024;-44
2022/01/09 06:08:33;;;;;;;84.95;35.10;;;;;;;;;;5095800;28;20024;-45
2022/01/09 06:10:59;;;;;;;95.22;31.92;;;;;;;;;;5096168;28;20099;-44
2022/01/09 06:13:25;;;;;;;74.18;31.58;;;;;;;;;;5095720;28;20032;-44
2022/01/09 06:15:51;;;;;;;78.88;33.58;;;;;;;;;;5096008;28;20024;-43
2022/01/09 06:18:20;;;;;;;130.05;41.53;;;;;;;;;;5095698;28;20040;-44
2022/01/09 06:20:47;;;;;;;109.40;39.70;;;;;;;;;;5095837;28;20027;-44
2022/01/09 06:23:15;;;;;;;104.68;42.45;;;;;;;;;;5095848;28;20085;-46
2022/01/09 06:25:41;;;;;;;90.82;40.63;;;;;;;;;;5095472;28;20028;-44
2022/01/09 06:28:08;;;;;;;90.97;39.72;;;;;;;;;;5095249;28;20397;-44
2022/01/09 06:30:34;;;;;;;86.57;36.25;;;;;;;;;;5095543;28;20529;-45
2022/01/09 06:33:00;;;;;;;81.10;36.15;;;;;;;;;;5095192;28;20485;-45
2022/01/09 06:35:27;;;;;;;84.75;36.78;;;;;;;;;;5095697;28;20087;-46
2022/01/09 06:37:53;;;;;;;57.42;28.42;;;;;;;;;;5095644;28;20028;-46
2022/01/09 06:40:19;;;;;;;71.63;27.77;;;;;;;;;;5095264;28;20012;-45
2022/01/09 06:42:47;;;;;;;62.45;25.95;;;;;;;;;;5095381;28;20024;-45
2022/01/09 06:45:13;;;;;;;56.03;26.42;;;;;;;;;;5095587;28;20016;-45
2022/01/09 06:47:40;;;;;;;124.32;32.25;;;;;;;;;;5095307;28;20562;-44
2022/01/09 06:50:06;;;;;;;88.25;38.80;;;;;;;;;;5095270;28;20027;-45
2022/01/09 06:52:32;;;;;;;105.95;36.40;;;;;;;;;;5094985;28;20105;-44
2022/01/09 06:54:58;;;;;;;120.63;40.72;;;;;;;;;;5094963;28;20020;-44
2022/01/09 06:57:24;;;;;;;129.13;36.60;;;;;;;;;;5095026;28;20078;-45
2022/01/09 06:59:57;;;;;;;118.13;42.85;;;;;;;;;;5095158;28;20070;-44
2022/01/09 07:02:26;;;;;;;162.45;50.90;;;;;;;;;;5094937;28;20024;-44
2022/01/09 07:04:52;;;;;;;148.80;47.72;;;;;;;;;;5094970;28;20031;-44
2022/01/09 07:07:18;;;;;;;116.97;44.92;;;;;;;;;;5094682;28;20030;-43
2022/01/09 07:09:44;;;;;;;115.45;45.47;;;;;;;;;;5094595;28;20054;-43
2022/01/09 07:12:10;;;;;;;196.77;63.95;;;;;;;;;;5094547;28;20547;-46
2022/01/09 07:14:37;;;;;;;159.98;66.13;;;;;;;;;;5094810;28;20148;-43
2022/01/09 07:17:03;;;;;;;178.88;56.88;;;;;;;;;;5094538;28;20066;-43
2022/01/09 07:19:29;;;;;;;119.85;50.75;;;;;;;;;;5094463;28;20103;-45
2022/01/09 07:21:55;;;;;;;123.32;46.58;;;;;;;;;;5094602;28;20078;-43
2022/01/09 07:24:22;;;;;;;97.68;40.88;;;;;;;;;;5094505;28;20027;-46
2022/01/09 07:26:48;;;;;;;108.03;46.13;;;;;;;;;;5094112;28;20028;-47
2022/01/09 07:29:14;;;;;;;132.77;55.22;;;;;;;;;;5094179;28;20112;-47
2022/01/09 07:31:40;;;;;;;121.68;52.25;;;;;;;;;;5094240;28;20024;-46
2022/01/09 07:34:06;;;;;;;131.75;54.25;;;;;;;;;;5094128;28;20028;-46
2022/01/09 07:36:32;;;;;;;125.57;53.58;;;;;;;;;;5094631;28;20096;-46
2022/01/09 07:38:58;;;;;;;129.10;59.58;;;;;;;;;;5094255;28;20024;-45
2022/01/09 07:41:24;;;;;;;138.65;67.53;;;;;;;;;;5094029;28;20024;-48
2022/01/09 07:43:50;;;;;;;147.82;73.38;;;;;;;;;;5094141;28;20020;-47
2022/01/09 07:46:17;;;;;;;136.82;66.45;;;;;;;;;;5094025;28;20030;-44
2022/01/09 07:48:43;;;;;;;131.60;65.43;;;;;;;;;;5093852;28;20104;-45
2022/01/09 07:51:09;;;;;;;145.75;72.25;;;;;;;;;;5093907;28;20082;-47
2022/01/09 07:53:35;;;;;;;139.43;70.03;;;;;;;;;;5093926;28;20032;-44
2022/01/09 07:56:01;;;;;;;133.00;67.72;;;;;;;;;;5093918;28;20016;-47
2022/01/09 07:58:27;;;;;;;148.15;79.18;;;;;;;;;;5094032;28;20028;-44
2022/01/09 08:00:53;;;;;;;120.70;61.75;;;;;;;;;;5093589;28;20544;-44
2022/01/09 08:03:19;;;;;;;169.65;99.60;;;;;;;;;;5093116;28;20081;-45
2022/01/09 08:05:46;;;;;;;147.45;86.82;;;;;;;;;;5093786;28;20048;-44
2022/01/09 08:08:12;;;;;;;126.70;74.15;;;;;;;;;;5093742;28;20070;-47
2022/01/09 08:10:38;;;;;;;101.63;57.60;;;;;;;;;;5093725;28;20024;-47
2022/01/09 08:13:04;;;;;;;81.35;50.03;;;;;;;;;;5093465;28;20024;-45
2022/01/09 08:15:30;;;;;;;80.45;48.00;;;;;;;;;;5093669;28;20485;-44
2022/01/09 08:17:56;;;;;;;81.78;51.53;;;;;;;;;;5093593;28;20039;-44
2022/01/09 08:20:23;;;;;;;79.82;53.72;;;;;;;;;;5093577;28;20377;-43
2022/01/09 08:22:49;;;;;;;97.72;61.35;;;;;;;;;;5093656;28;20071;-42
2022/01/09 08:25:16;;;;;;;228.88;127.30;;;;;;;;;;5093331;28;20020;-42
2022/01/09 08:27:43;;;;;;;198.50;118.03;;;;;;;;;;5093089;28;20182;-45
2022/01/09 08:30:12;;;;;;;158.68;105.13;;;;;;;;;;5093267;28;20017;-44
2022/01/09 08:32:38;;;;;;;196.15;121.38;;;;;;;;;;5093344;28;20148;-46
2022/01/09 08:35:05;;;;;;;309.55;161.52;;;;;;;;;;5093455;28;20385;-44
2022/01/09 08:37:32;;;;;;;219.38;118.40;;;;;;;;;;5082451;28;20093;-46
2022/01/09 08:39:58;;;;;;;206.07;108.20;;;;;;;;;;5063645;28;20034;-46
2022/01/09 08:42:24;;;;;;;364.25;151.13;;;;;;;;;;5062311;28;20024;-47
2022/01/09 08:44:50;;;;;;;283.88;135.00;;;;;;;;;;5062206;28;20035;-47
2022/01/09 08:47:16;;;;;;;186.35;103.10;;;;;;;;;;5062245;28;20037;-46
2022/01/09 08:49:42;;;;;;;237.25;125.15;;;;;;;;;;5062075;28;20555;-44
2022/01/09 08:52:08;;;;;;;251.57;124.78;;;;;;;;;;5062279;28;20081;-47
2022/01/09 08:54:35;;;;;;;215.75;107.50;;;;;;;;;;5063285;28;20020;-51
2022/01/09 08:57:03;;;;;;;173.50;88.05;;;;;;;;;;5061724;28;20089;-44
2022/01/09 08:59:29;;;;;;;167.48;85.55;;;;;;;;;;5062118;28;20021;-50
2022/01/09 09:01:56;;;;;;;152.70;84.97;;;;;;;;;;5063408;28;20025;-50
2022/01/09 09:04:22;;;;;;;160.35;88.10;;;;;;;;;;5061615;28;20033;-49
2022/01/09 09:06:48;;;;;;;155.73;84.60;;;;;;;;;;5062332;28;20028;-50
2022/01/09 09:09:15;;;;;;;179.45;98.32;;;;;;;;;;5061016;28;20032;-47
2022/01/09 09:11:41;;;;;;;183.80;98.80;;;;;;;;;;5062229;28;20078;-47
2022/01/09 09:14:07;;;;;;;176.32;99.82;;;;;;;;;;5062635;28;20068;-52
2022/01/09 09:16:33;;;;;;;114.03;65.05;;;;;;;;;;5065928;28;20032;-52
2022/01/09 09:18:59;;;;;;;81.13;49.42;;;;;;;;;;5066095;28;20073;-51
2022/01/09 09:21:25;;;;;;;92.68;52.47;;;;;;;;;;5066524;28;20025;-53
2022/01/09 09:23:51;;;;;;;105.25;62.85;;;;;;;;;;5066243;28;20032;-53
2022/01/09 09:26:17;;;;;;;105.88;62.03;;;;;;;;;;5065196;28;20179;-48
2022/01/09 09:28:44;;;;;;;94.47;55.15;;;;;;;;;;5065440;28;20055;-51
2022/01/09 09:31:10;;;;;;;114.60;68.63;;;;;;;;;;5066421;28;20024;-53
2022/01/09 09:33:36;;;;;;;110.43;66.90;;;;;;;;;;5065116;28;20074;-45
2022/01/09 09:36:03;;;;;;;185.63;113.45;;;;;;;;;;5065583;28;20466;-47
2022/01/09 09:38:30;;;;;;;122.82;77.15;;;;;;;;;;5065148;28;20070;-48
2022/01/09 09:40:57;;;;;;;128.02;78.32;;;;;;;;;;5065283;28;20125;-46
2022/01/09 09:43:23;;;;;;;132.30;79.97;;;;;;;;;;5066815;28;20540;-46
2022/01/09 09:45:51;;;;;;;163.63;94.55;;;;;;;;;;5065211;28;20478;-47
2022/01/09 09:48:17;;;;;;;187.85;114.68;;;;;;;;;;5065576;28;20078;-47
2022/01/09 09:50:43;;;;;;;271.65;167.90;;;;;;;;;;5065228;28;20024;-47
2022/01/09 09:53:09;;;;;;;211.50;120.53;;;;;;;;;;5065126;28;20048;-47
2022/01/09 09:55:35;;;;;;;176.07;99.60;;;;;;;;;;5065236;28;20142;-47
2022/01/09 09:58:01;;;;;;;202.07;116.72;;;;;;;;;;5064884;28;20060;-49
2022/01/09 10:00:30;;;;;;;238.75;118.72;;;;;;;;;;5065574;28;20186;-52
2022/01/09 10:02:58;;;;;;;170.30;94.70;;;;;;;;;;5065142;28;20078;-48
2022/01/09 10:05:28;;;;;;;110.70;65.90;;;;;;;;;;5064769;28;20055;-53
2022/01/09 10:07:55;;;;;;;109.10;69.50;;;;;;;;;;5064444;28;20017;-52
2022/01/09 10:10:29;;;;;;;109.28;64.60;;;;;;;;;;5064878;28;20021;-51
2022/01/09 10:13:04;;;;;;;131.05;79.70;;;;;;;;;;5066617;28;20131;-49
2022/01/09 10:15:30;;;;;;;94.82;55.80;;;;;;;;;;5064798;28;20037;-49
2022/01/09 10:17:56;;;;;;;112.15;69.63;;;;;;;;;;5064686;28;20143;-48
2022/01/09 10:20:28;;;;;;;104.25;67.30;;;;;;;;;;5064567;28;20031;-48
2022/01/09 10:22:55;;;;;;;100.90;62.13;;;;;;;;;;5064037;28;20028;-49
2022/01/09 10:25:25;;;;;;;94.68;55.70;;;;;;;;;;5064266;28;20533;-53
2022/01/09 10:27:57;;;;;;;86.95;52.80;;;;;;;;;;5063919;28;20078;-53
2022/01/09 10:30:24;;;;;;;87.70;51.28;;;;;;;;;;5064669;28;20135;-48
2022/01/09 10:32:54;;;;;;;94.05;56.85;;;;;;;;;;5064447;28;20040;-54
2022/01/09 10:35:20;;;;;;;92.65;55.10;;;;;;;;;;5064396;28;20456;-52
2022/01/09 10:37:48;;;;;;;114.97;60.17;;;;;;;;;;5064261;28;20449;-49
2022/01/09 10:40:22;;;;;;;148.43;74.45;;;;;;;;;;5064162;28;20121;-48
2022/01/09 10:43:08;;;;;;;184.82;90.65;;;;;;;;;;5065085;28;20060;-48
2022/01/09 10:45:36;;;;;;;187.35;94.05;;;;;;;;;;5065519;28;20027;-53
2022/01/09 10:48:04;;;;;;;144.18;74.18;;;;;;;;;;5064176;28;20031;-50
2022/01/09 10:50:32;;;;;;;144.55;81.20;;;;;;;;;;5064315;28;20024;-54
2022/01/09 10:53:18;;;;;;;162.02;88.63;;;;;;;;;;5064056;28;20043;-47
2022/01/09 10:56:03;;;;;;;191.18;95.88;;;;;;;;;;5065370;28;20127;-49
2022/01/09 10:58:30;;;;;;;181.48;91.95;;;;;;;;;;5064070;28;20051;-46
2022/01/09 11:01:13;;;;;;;148.98;84.82;;;;;;;;;;5065445;28;20031;-46
2022/01/09 11:03:40;;;;;;;151.25;83.55;;;;;;;;;;5063849;28;20035;-49
2022/01/09 11:06:10;;;;;;;163.68;90.93;;;;;;;;;;5065633;28;20093;-48
2022/01/09 11:08:37;;;;;;;196.52;101.47;;;;;;;;;;5063779;28;20187;-47
2022/01/09 11:11:08;;;;;;;194.88;102.45;;;;;;;;;;5063567;28;20035;-49
2022/01/09 11:13:36;;;;;;;199.63;102.80;;;;;;;;;;5064589;28;20041;-51
2022/01/09 11:18:49;;;;;;;158.65;90.63;;;;;;;;;;5064499;28;20188;-47
2022/01/09 11:21:16;;;;;;;149.07;84.20;;;;;;;;;;5064485;28;20029;-53
2022/01/09 11:23:50;;;;;;;179.93;93.63;;;;;;;;;;5063777;28;20102;-47
2022/01/09 11:26:16;;;;;;;131.65;72.03;;;;;;;;;;5064353;28;20103;-45
2022/01/09 11:28:43;;;;;;;121.43;64.80;;;;;;;;;;5063407;28;20048;-48
2022/01/09 11:31:31;;;;;;;208.32;110.28;;;;;;;;;;5063379;28;20106;-49
2022/01/09 11:34:16;;;;;;;114.60;57.22;;;;;;;;;;5064486;28;20035;-48
2022/01/09 11:37:06;;;;;;;130.32;58.50;;;;;;;;;;5064811;28;20028;-51
2022/01/09 11:39:35;;;;;;;160.37;75.37;;;;;;;;;;5062523;28;20025;-51
2022/01/09 11:42:22;;;;;;;145.10;72.18;;;;;;;;;;5064116;28;20027;-53
2022/01/09 11:44:52;;;;;;;72.43;40.45;;;;;;;;;;5063289;28;20040;-53
2022/01/09 11:47:19;;;;;;;86.13;46.28;;;;;;;;;;5063575;28;20036;-54
2022/01/09 11:49:54;;;;;;;88.00;46.72;;;;;;;;;;5063421;28;20025;-54
2022/01/09 11:52:20;;;;;;;106.57;55.40;;;;;;;;;;5062767;28;20020;-57
2022/01/09 11:54:48;;;;;;;104.80;49.45;;;;;;;;;;5063061;28;20453;-54
2022/01/09 11:57:20;;;;;;;87.60;44.60;;;;;;;;;;5063156;28;20135;-55
2022/01/09 11:59:51;;;;;;;83.18;38.30;;;;;;;;;;5062734;28;20052;-53
2022/01/09 12:02:18;;;;;;;91.63;44.03;;;;;;;;;;5063953;28;20024;-52
2022/01/09 12:04:47;;;;;;;88.35;44.17;;;;;;;;;;5064059;28;20084;-48
2022/01/09 12:07:15;;;;;;;82.40;38.40;;;;;;;;;;5062850;28;20020;-49
2022/01/09 12:09:41;;;;;;;76.75;38.15;;;;;;;;;;5062527;28;20198;-49
2022/01/09 12:12:09;;;;;;;64.97;34.03;;;;;;;;;;5062351;28;20028;-53
2022/01/09 12:17:22;;;;;;;60.83;31.65;;;;;;;;;;5093334;28;20081;-52
2022/01/09 12:20:14;;;;;;;69.30;34.25;;;;;;;;;;5092853;28;20020;-52
2022/01/09 12:22:41;;;;;;;70.78;36.53;;;;;;;;;;5049485;28;20047;-50
2022/01/09 12:25:11;;;;;;;76.43;36.33;;;;;;;;;;5050655;28;20426;-53
2022/01/09 12:27:45;;;;;;;84.05;41.33;;;;;;;;;;5050533;28;20063;-55
2022/01/09 12:30:35;;;;;;;83.35;42.47;;;;;;;;;;5050155;28;20032;-55
2022/01/09 12:33:12;;;;;;;90.18;39.85;;;;;;;;;;5049452;28;20398;-55
2022/01/09 12:35:42;;;;;;;78.32;36.53;;;;;;;;;;5050345;28;20033;-54
2022/01/09 12:38:13;;;;;;;104.38;49.00;;;;;;;;;;5048029;28;20025;-54
2022/01/09 12:40:40;;;;;;;106.40;47.38;;;;;;;;;;5050459;28;20040;-54
2022/01/09 12:43:07;;;;;;;113.70;48.60;;;;;;;;;;5047718;28;20037;-53
2022/01/09 12:45:34;;;;;;;103.43;47.67;;;;;;;;;;5050441;28;20025;-54
2022/01/09 12:48:01;;;;;;;118.30;51.72;;;;;;;;;;5050474;28;20029;-55
2022/01/09 12:50:32;;;;;;;187.82;81.50;;;;;;;;;;5050647;28;20025;-54
2022/01/09 12:53:11;;;;;;;179.90;70.15;;;;;;;;;;5054404;28;20406;-52
2022/01/09 12:55:52;;;;;;;129.70;52.75;;;;;;;;;;5054318;28;20429;-53
2022/01/09 12:58:18;;;;;;;;;;;;;;;;;;5054637;28;20125;-51
2022/01/09 13:00:44;;;;;;;130.38;53.28;;;;;;;;;;5093958;28;19904;-53
2022/01/09 13:03:17;;;;;;;135.40;58.95;;;;;;;;;;5096762;28;20024;-54
2022/01/09 13:05:51;;;;;;;120.90;53.13;;;;;;;;;;5096601;28;20035;-55
2022/01/09 13:08:18;;;;;;;138.18;57.17;;;;;;;;;;5096492;28;20363;-54
2022/01/09 13:10:49;;;;;;;123.07;52.30;;;;;;;;;;5093739;28;20385;-54
2022/01/09 13:13:17;;;;;;;107.90;46.73;;;;;;;;;;5096503;28;20035;-56
2022/01/09 13:15:43;;;;;;;119.80;50.60;;;;;;;;;;5096839;28;20031;-54
2022/01/09 13:18:09;;;;;;;116.18;49.95;;;;;;;;;;5096323;28;20441;-52
2022/01/09 13:20:35;;;;;;;101.60;44.38;;;;;;;;;;5096153;28;20046;-51
2022/01/09 13:23:02;;;;;;;109.18;46.22;;;;;;;;;;5096262;28;20073;-48
2022/01/09 13:25:28;;;;;;;109.85;46.45;;;;;;;;;;5096430;28;20024;-49
2022/01/09 13:27:54;;;;;;;99.47;41.88;;;;;;;;;;5096057;28;20056;-47
2022/01/09 13:30:23;;;;;;;105.80;45.17;;;;;;;;;;5094864;28;20079;-50
2022/01/09 13:32:49;;;;;;;121.65;51.35;;;;;;;;;;5096136;28;20123;-50
2022/01/09 13:35:16;;;;;;;120.47;51.55;;;;;;;;;;5095977;28;20020;-47
2022/01/09 13:37:42;;;;;;;104.10;41.72;;;;;;;;;;5096048;28;20060;-50
2022/01/09 13:40:08;;;;;;;96.82;38.90;;;;;;;;;;5096047;28;20059;-49
2022/01/09 13:42:35;;;;;;;103.72;40.90;;;;;;;;;;5096260;28;20023;-47
2022/01/09 13:45:08;;;;;;;119.13;48.30;;;;;;;;;;5096175;28;20077;-51
2022/01/09 13:47:51;;;;;;;117.30;47.50;;;;;;;;;;5096021;28;20040;-49
2022/01/09 13:50:24;;;;;;;143.98;56.00;;;;;;;;;;5096536;28;20016;-51
2022/01/09 13:52:53;;;;;;;152.20;61.03;;;;;;;;;;5096390;28;20036;-53
2022/01/09 13:55:23;;;;;;;147.68;56.95;;;;;;;;;;5096488;28;20060;-51
2022/01/09 13:57:56;;;;;;;155.00;57.70;;;;;;;;;;5096241;28;20026;-51
2022/01/09 14:00:24;;;;;;;146.02;55.95;;;;;;;;;;5095504;28;20390;-49
2022/01/09 14:02:51;;;;;;;184.25;69.30;;;;;;;;;;5095654;28;20081;-49
2022/01/09 14:05:18;;;;;;;159.75;58.33;;;;;;;;;;5095380;28;20438;-50
2022/01/09 14:07:47;;;;;;;148.23;54.90;;;;;;;;;;5092799;28;20024;-50
2022/01/09 14:10:13;;;;;;;151.88;52.80;;;;;;;;;;5095526;28;20016;-51
2022/01/09 14:12:40;;;;;;;168.02;63.40;;;;;;;;;;5095177;28;20031;-50
2022/01/09 14:15:17;;;;;;;175.50;66.38;;;;;;;;;;5095422;28;20027;-50
2022/01/09 14:17:47;;;;;;;177.68;63.92;;;;;;;;;;5093960;28;20024;-50
2022/01/09 14:20:16;;;;;;;160.13;57.78;;;;;;;;;;5095280;28;20028;-49
2022/01/09 14:22:43;;;;;;;167.98;61.35;;;;;;;;;;5095230;28;20024;-49